Terminal Aerodrome Forecast
Issued by NWS Green Bay, WI

Home | Current Version | Previous Version | Text Only | Print | Product List | Glossary Off
Versions: 1 2 3 4 5 6 7 8 9 10 11 12 13 14 15 16 17 18 19 20 21 22 23 24 25 26 27 28

000
FTUS43 KGRB 240500
TAFGRB
TAF
KGRB 240520Z 2406/2506 VRB03KT 2SM BR OVC012
     FM240800 VRB03KT 1/2SM FG VV002
     FM241400 24003KT 5SM BR BKN008
     FM241800 23005KT P6SM SCT012 BKN025
     FM242100 22005KT P6SM SCT025
     FM250300 19004KT 5SM BR SCT090=

USA.gov is the U.S. government's official web portal to all federal, state and local government web resources and services.